sensor_id;sensor_type;location;lat;lon;timestamp;P1;durP1;ratioP1;P2;durP2;ratioP2
9166;SDS011;4618;48.818;9.088;2023-05-28T00:00:52;13.27;;;6.30;;
9166;SDS011;4618;48.818;9.088;2023-05-28T00:03:21;12.33;;;6.33;;
9166;SDS011;4618;48.818;9.088;2023-05-28T00:05:48;10.40;;;6.03;;
9166;SDS011;4618;48.818;9.088;2023-05-28T00:08:15;12.37;;;5.90;;
9166;SDS011;4618;48.818;9.088;2023-05-28T00:10:41;11.07;;;5.90;;
9166;SDS011;4618;48.818;9.088;2023-05-28T00:13:07;8.07;;;6.00;;
9166;SDS011;4618;48.818;9.088;2023-05-28T00:15:33;11.83;;;6.53;;
9166;SDS011;4618;48.818;9.088;2023-05-28T00:18:00;9.47;;;6.30;;
9166;SDS011;4618;48.818;9.088;2023-05-28T00:20:26;7.53;;;5.80;;
9166;SDS011;4618;48.818;9.088;2023-05-28T00:22:52;7.93;;;6.00;;
9166;SDS011;4618;48.818;9.088;2023-05-28T00:25:18;10.03;;;6.50;;
9166;SDS011;4618;48.818;9.088;2023-05-28T00:27:44;9.33;;;6.87;;
9166;SDS011;4618;48.818;9.088;2023-05-28T00:30:10;9.07;;;6.33;;
9166;SDS011;4618;48.818;9.088;2023-05-28T00:32:38;9.40;;;6.27;;
9166;SDS011;4618;48.818;9.088;2023-05-28T00:35:05;9.73;;;6.20;;
9166;SDS011;4618;48.818;9.088;2023-05-28T00:37:31;11.70;;;6.60;;
9166;SDS011;4618;48.818;9.088;2023-05-28T00:39:57;10.70;;;6.27;;
9166;SDS011;4618;48.818;9.088;2023-05-28T00:42:23;8.50;;;6.10;;
9166;SDS011;4618;48.818;9.088;2023-05-28T00:44:49;10.37;;;6.20;;
9166;SDS011;4618;48.818;9.088;2023-05-28T00:47:15;10.87;;;6.00;;
9166;SDS011;4618;48.818;9.088;2023-05-28T00:49:41;10.93;;;6.63;;
9166;SDS011;4618;48.818;9.088;2023-05-28T00:52:07;10.27;;;6.27;;
9166;SDS011;4618;48.818;9.088;2023-05-28T00:54:35;10.63;;;5.83;;
9166;SDS011;4618;48.818;9.088;2023-05-28T00:57:01;13.07;;;6.17;;
9166;SDS011;4618;48.818;9.088;2023-05-28T00:59:28;9.13;;;6.13;;
9166;SDS011;4618;48.818;9.088;2023-05-28T01:01:54;14.57;;;6.57;;
9166;SDS011;4618;48.818;9.088;2023-05-28T01:04:20;9.30;;;6.13;;
9166;SDS011;4618;48.818;9.088;2023-05-28T01:06:54;10.23;;;6.10;;
9166;SDS011;4618;48.818;9.088;2023-05-28T01:09:21;12.10;;;6.60;;
9166;SDS011;4618;48.818;9.088;2023-05-28T01:11:47;11.43;;;6.13;;
9166;SDS011;4618;48.818;9.088;2023-05-28T01:14:16;11.23;;;5.63;;
9166;SDS011;4618;48.818;9.088;2023-05-28T01:16:42;9.23;;;5.87;;
9166;SDS011;4618;48.818;9.088;2023-05-28T01:19:09;11.43;;;5.80;;
9166;SDS011;4618;48.818;9.088;2023-05-28T01:21:41;10.87;;;6.23;;
9166;SDS011;4618;48.818;9.088;2023-05-28T01:24:10;8.83;;;5.53;;
9166;SDS011;4618;48.818;9.088;2023-05-28T01:26:38;14.40;;;5.63;;
9166;SDS011;4618;48.818;9.088;2023-05-28T01:29:15;12.13;;;6.30;;
9166;SDS011;4618;48.818;9.088;2023-05-28T01:31:42;10.20;;;5.93;;
9166;SDS011;4618;48.818;9.088;2023-05-28T01:34:09;10.20;;;6.23;;
9166;SDS011;4618;48.818;9.088;2023-05-28T01:36:35;11.37;;;6.10;;
9166;SDS011;4618;48.818;9.088;2023-05-28T01:39:05;10.00;;;6.03;;
9166;SDS011;4618;48.818;9.088;2023-05-28T01:41:31;10.93;;;5.73;;
9166;SDS011;4618;48.818;9.088;2023-05-28T01:43:58;11.63;;;6.20;;
9166;SDS011;4618;48.818;9.088;2023-05-28T01:46:24;9.47;;;5.80;;
9166;SDS011;4618;48.818;9.088;2023-05-28T01:48:51;9.93;;;6.33;;
9166;SDS011;4618;48.818;9.088;2023-05-28T01:51:21;7.67;;;5.90;;
9166;SDS011;4618;48.818;9.088;2023-05-28T01:53:47;10.20;;;6.50;;
9166;SDS011;4618;48.818;9.088;2023-05-28T01:56:13;10.50;;;6.40;;
9166;SDS011;4618;48.818;9.088;2023-05-28T01:58:38;12.63;;;6.33;;
9166;SDS011;4618;48.818;9.088;2023-05-28T02:01:08;11.00;;;6.07;;
9166;SDS011;4618;48.818;9.088;2023-05-28T02:03:39;10.20;;;5.93;;
9166;SDS011;4618;48.818;9.088;2023-05-28T02:06:05;6.67;;;5.90;;
9166;SDS011;4618;48.818;9.088;2023-05-28T02:08:30;8.67;;;6.13;;
9166;SDS011;4618;48.818;9.088;2023-05-28T02:10:56;10.63;;;6.30;;
9166;SDS011;4618;48.818;9.088;2023-05-28T02:13:21;10.23;;;6.07;;
9166;SDS011;4618;48.818;9.088;2023-05-28T02:15:47;12.40;;;7.87;;
9166;SDS011;4618;48.818;9.088;2023-05-28T02:18:12;12.67;;;7.50;;
9166;SDS011;4618;48.818;9.088;2023-05-28T02:20:39;14.20;;;8.70;;
9166;SDS011;4618;48.818;9.088;2023-05-28T02:23:07;13.33;;;7.73;;
9166;SDS011;4618;48.818;9.088;2023-05-28T02:25:32;11.17;;;6.87;;
9166;SDS011;4618;48.818;9.088;2023-05-28T02:27:58;11.93;;;7.40;;
9166;SDS011;4618;48.818;9.088;2023-05-28T02:30:23;10.80;;;6.50;;
9166;SDS011;4618;48.818;9.088;2023-05-28T02:32:49;12.53;;;6.80;;
9166;SDS011;4618;48.818;9.088;2023-05-28T02:35:15;11.53;;;6.63;;
9166;SDS011;4618;48.818;9.088;2023-05-28T02:37:40;10.83;;;6.80;;
9166;SDS011;4618;48.818;9.088;2023-05-28T02:40:06;10.27;;;6.63;;
9166;SDS011;4618;48.818;9.088;2023-05-28T02:42:34;9.37;;;6.97;;
9166;SDS011;4618;48.818;9.088;2023-05-28T02:45:00;10.30;;;6.60;;
9166;SDS011;4618;48.818;9.088;2023-05-28T02:47:26;9.00;;;7.00;;
9166;SDS011;4618;48.818;9.088;2023-05-28T02:49:51;10.63;;;6.87;;
9166;SDS011;4618;48.818;9.088;2023-05-28T02:52:17;9.93;;;6.43;;
9166;SDS011;4618;48.818;9.088;2023-05-28T02:54:42;10.03;;;6.70;;
9166;SDS011;4618;48.818;9.088;2023-05-28T02:57:08;9.73;;;6.90;;
9166;SDS011;4618;48.818;9.088;2023-05-28T02:59:33;13.13;;;7.27;;
9166;SDS011;4618;48.818;9.088;2023-05-28T03:01:59;11.53;;;7.73;;
9166;SDS011;4618;48.818;9.088;2023-05-28T03:04:25;10.00;;;6.67;;
9166;SDS011;4618;48.818;9.088;2023-05-28T03:06:50;13.10;;;7.63;;
9166;SDS011;4618;48.818;9.088;2023-05-28T03:09:16;13.67;;;6.93;;
9166;SDS011;4618;48.818;9.088;2023-05-28T03:11:42;8.37;;;7.17;;
9166;SDS011;4618;48.818;9.088;2023-05-28T03:14:08;9.70;;;7.00;;
9166;SDS011;4618;48.818;9.088;2023-05-28T03:16:33;11.53;;;7.17;;
9166;SDS011;4618;48.818;9.088;2023-05-28T03:19:01;13.30;;;7.00;;
9166;SDS011;4618;48.818;9.088;2023-05-28T03:21:27;12.83;;;7.17;;
9166;SDS011;4618;48.818;9.088;2023-05-28T03:23:53;10.73;;;7.37;;
9166;SDS011;4618;48.818;9.088;2023-05-28T03:26:18;12.93;;;7.93;;
9166;SDS011;4618;48.818;9.088;2023-05-28T03:28:44;11.70;;;6.97;;
9166;SDS011;4618;48.818;9.088;2023-05-28T03:31:11;10.57;;;7.13;;
9166;SDS011;4618;48.818;9.088;2023-05-28T03:33:37;11.33;;;7.17;;
9166;SDS011;4618;48.818;9.088;2023-05-28T03:36:03;9.23;;;6.63;;
9166;SDS011;4618;48.818;9.088;2023-05-28T03:38:30;11.13;;;6.73;;
9166;SDS011;4618;48.818;9.088;2023-05-28T03:40:56;11.83;;;7.70;;
9166;SDS011;4618;48.818;9.088;2023-05-28T03:43:22;11.90;;;7.23;;
9166;SDS011;4618;48.818;9.088;2023-05-28T03:45:47;9.53;;;6.87;;
9166;SDS011;4618;48.818;9.088;2023-05-28T03:48:13;9.47;;;7.17;;
9166;SDS011;4618;48.818;9.088;2023-05-28T03:50:39;11.30;;;6.80;;
9166;SDS011;4618;48.818;9.088;2023-05-28T03:53:05;13.63;;;6.80;;
9166;SDS011;4618;48.818;9.088;2023-05-28T03:55:32;10.87;;;7.20;;
9166;SDS011;4618;48.818;9.088;2023-05-28T03:58:00;10.13;;;7.10;;
9166;SDS011;4618;48.818;9.088;2023-05-28T04:00:26;12.90;;;7.80;;
9166;SDS011;4618;48.818;9.088;2023-05-28T04:02:52;13.40;;;7.97;;
9166;SDS011;4618;48.818;9.088;2023-05-28T04:05:18;10.10;;;7.20;;
9166;SDS011;4618;48.818;9.088;2023-05-28T04:07:43;12.70;;;7.10;;
9166;SDS011;4618;48.818;9.088;2023-05-28T04:10:09;12.07;;;7.07;;
9166;SDS011;4618;48.818;9.088;2023-05-28T04:12:35;12.57;;;6.60;;
9166;SDS011;4618;48.818;9.088;2023-05-28T04:15:01;10.73;;;6.23;;
9166;SDS011;4618;48.818;9.088;2023-05-28T04:17:28;9.77;;;6.33;;
9166;SDS011;4618;48.818;9.088;2023-05-28T04:19:55;11.23;;;6.53;;
9166;SDS011;4618;48.818;9.088;2023-05-28T04:22:21;10.93;;;7.20;;
9166;SDS011;4618;48.818;9.088;2023-05-28T04:24:48;9.83;;;7.00;;
9166;SDS011;4618;48.818;9.088;2023-05-28T04:27:16;7.33;;;6.20;;
9166;SDS011;4618;48.818;9.088;2023-05-28T04:29:42;12.87;;;7.10;;
9166;SDS011;4618;48.818;9.088;2023-05-28T04:32:08;8.10;;;6.70;;
9166;SDS011;4618;48.818;9.088;2023-05-28T04:34:34;11.23;;;6.90;;
9166;SDS011;4618;48.818;9.088;2023-05-28T04:37:00;10.93;;;7.40;;
9166;SDS011;4618;48.818;9.088;2023-05-28T04:39:25;10.67;;;7.23;;
9166;SDS011;4618;48.818;9.088;2023-05-28T04:41:51;8.97;;;6.70;;
9166;SDS011;4618;48.818;9.088;2023-05-28T04:44:18;10.57;;;7.00;;
9166;SDS011;4618;48.818;9.088;2023-05-28T04:46:44;11.63;;;7.60;;
9166;SDS011;4618;48.818;9.088;2023-05-28T04:49:10;10.13;;;7.50;;
9166;SDS011;4618;48.818;9.088;2023-05-28T04:51:39;10.33;;;7.50;;
9166;SDS011;4618;48.818;9.088;2023-05-28T04:54:05;10.20;;;7.53;;
9166;SDS011;4618;48.818;9.088;2023-05-28T04:56:31;11.63;;;6.90;;
9166;SDS011;4618;48.818;9.088;2023-05-28T04:58:56;9.23;;;6.17;;
9166;SDS011;4618;48.818;9.088;2023-05-28T05:01:22;9.17;;;6.40;;
9166;SDS011;4618;48.818;9.088;2023-05-28T05:03:49;10.50;;;6.77;;
9166;SDS011;4618;48.818;9.088;2023-05-28T05:06:15;10.00;;;6.37;;
9166;SDS011;4618;48.818;9.088;2023-05-28T05:08:41;8.87;;;6.07;;
9166;SDS011;4618;48.818;9.088;2023-05-28T05:11:07;9.43;;;6.77;;
9166;SDS011;4618;48.818;9.088;2023-05-28T05:13:33;10.23;;;6.17;;
9166;SDS011;4618;48.818;9.088;2023-05-28T05:15:58;8.13;;;6.03;;
9166;SDS011;4618;48.818;9.088;2023-05-28T05:18:24;7.57;;;6.60;;
9166;SDS011;4618;48.818;9.088;2023-05-28T05:20:50;9.63;;;7.30;;
9166;SDS011;4618;48.818;9.088;2023-05-28T05:23:16;8.50;;;5.90;;
9166;SDS011;4618;48.818;9.088;2023-05-28T05:25:41;9.57;;;6.43;;
9166;SDS011;4618;48.818;9.088;2023-05-28T05:28:08;12.77;;;6.20;;
9166;SDS011;4618;48.818;9.088;2023-05-28T05:30:34;9.17;;;5.97;;
9166;SDS011;4618;48.818;9.088;2023-05-28T05:33:00;10.00;;;6.07;;
9166;SDS011;4618;48.818;9.088;2023-05-28T05:35:26;9.13;;;5.83;;
9166;SDS011;4618;48.818;9.088;2023-05-28T05:37:51;10.07;;;6.83;;
9166;SDS011;4618;48.818;9.088;2023-05-28T05:40:17;9.97;;;6.37;;
9166;SDS011;4618;48.818;9.088;2023-05-28T05:42:43;9.33;;;6.40;;
9166;SDS011;4618;48.818;9.088;2023-05-28T05:45:08;8.37;;;6.20;;
9166;SDS011;4618;48.818;9.088;2023-05-28T05:47:35;10.03;;;6.50;;
9166;SDS011;4618;48.818;9.088;2023-05-28T05:50:02;10.77;;;6.10;;
9166;SDS011;4618;48.818;9.088;2023-05-28T05:52:28;9.33;;;6.27;;
9166;SDS011;4618;48.818;9.088;2023-05-28T05:54:53;8.17;;;6.07;;
9166;SDS011;4618;48.818;9.088;2023-05-28T05:57:19;10.57;;;5.93;;
9166;SDS011;4618;48.818;9.088;2023-05-28T05:59:45;10.10;;;5.67;;
9166;SDS011;4618;48.818;9.088;2023-05-28T06:02:10;9.90;;;5.97;;
9166;SDS011;4618;48.818;9.088;2023-05-28T06:04:36;10.50;;;6.17;;
9166;SDS011;4618;48.818;9.088;2023-05-28T06:07:01;8.13;;;5.47;;
9166;SDS011;4618;48.818;9.088;2023-05-28T06:09:32;11.40;;;5.50;;
9166;SDS011;4618;48.818;9.088;2023-05-28T06:11:58;8.13;;;5.50;;
9166;SDS011;4618;48.818;9.088;2023-05-28T06:14:25;8.27;;;5.50;;
9166;SDS011;4618;48.818;9.088;2023-05-28T06:16:51;10.90;;;5.53;;
9166;SDS011;4618;48.818;9.088;2023-05-28T06:19:17;9.13;;;5.00;;
9166;SDS011;4618;48.818;9.088;2023-05-28T06:21:43;9.43;;;5.53;;
9166;SDS011;4618;48.818;9.088;2023-05-28T06:24:08;8.07;;;4.97;;
9166;SDS011;4618;48.818;9.088;2023-05-28T06:26:34;8.10;;;5.10;;
9166;SDS011;4618;48.818;9.088;2023-05-28T06:28:59;7.80;;;5.50;;
9166;SDS011;4618;48.818;9.088;2023-05-28T06:31:25;8.50;;;5.17;;
9166;SDS011;4618;48.818;9.088;2023-05-28T06:33:51;7.30;;;4.50;;
9166;SDS011;4618;48.818;9.088;2023-05-28T06:36:16;9.30;;;4.97;;
9166;SDS011;4618;48.818;9.088;2023-05-28T06:38:42;6.07;;;4.60;;
9166;SDS011;4618;48.818;9.088;2023-05-28T06:41:08;7.67;;;4.53;;
9166;SDS011;4618;48.818;9.088;2023-05-28T06:43:34;8.23;;;4.63;;
9166;SDS011;4618;48.818;9.088;2023-05-28T06:46:00;9.87;;;4.60;;
9166;SDS011;4618;48.818;9.088;2023-05-28T06:48:26;8.40;;;4.60;;
9166;SDS011;4618;48.818;9.088;2023-05-28T06:50:51;7.60;;;4.27;;
9166;SDS011;4618;48.818;9.088;2023-05-28T06:53:17;9.33;;;4.70;;
9166;SDS011;4618;48.818;9.088;2023-05-28T06:55:43;7.00;;;4.30;;
9166;SDS011;4618;48.818;9.088;2023-05-28T06:58:08;7.97;;;4.30;;
9166;SDS011;4618;48.818;9.088;2023-05-28T07:00:34;8.83;;;4.30;;
9166;SDS011;4618;48.818;9.088;2023-05-28T07:03:00;8.10;;;4.70;;
9166;SDS011;4618;48.818;9.088;2023-05-28T07:05:25;10.50;;;4.23;;
9166;SDS011;4618;48.818;9.088;2023-05-28T07:07:51;6.77;;;4.20;;
9166;SDS011;4618;48.818;9.088;2023-05-28T07:10:17;6.83;;;4.20;;
9166;SDS011;4618;48.818;9.088;2023-05-28T07:12:43;7.87;;;4.30;;
9166;SDS011;4618;48.818;9.088;2023-05-28T07:15:09;7.40;;;3.83;;
9166;SDS011;4618;48.818;9.088;2023-05-28T07:17:35;6.97;;;3.83;;
9166;SDS011;4618;48.818;9.088;2023-05-28T07:20:01;8.80;;;4.27;;
9166;SDS011;4618;48.818;9.088;2023-05-28T07:22:29;5.40;;;3.60;;
9166;SDS011;4618;48.818;9.088;2023-05-28T07:24:54;8.00;;;4.20;;
9166;SDS011;4618;48.818;9.088;2023-05-28T07:27:20;6.63;;;3.93;;
9166;SDS011;4618;48.818;9.088;2023-05-28T07:29:46;7.33;;;4.00;;
9166;SDS011;4618;48.818;9.088;2023-05-28T07:32:11;7.20;;;4.03;;
9166;SDS011;4618;48.818;9.088;2023-05-28T07:34:37;6.73;;;3.87;;
9166;SDS011;4618;48.818;9.088;2023-05-28T07:37:04;6.93;;;4.20;;
9166;SDS011;4618;48.818;9.088;2023-05-28T07:39:30;6.47;;;3.70;;
9166;SDS011;4618;48.818;9.088;2023-05-28T07:41:56;6.82;;;4.00;;
9166;SDS011;4618;48.818;9.088;2023-05-28T07:44:21;7.38;;;3.90;;
9166;SDS011;4618;48.818;9.088;2023-05-28T07:46:47;7.93;;;3.60;;
9166;SDS011;4618;48.818;9.088;2023-05-28T07:49:13;7.50;;;4.10;;
9166;SDS011;4618;48.818;9.088;2023-05-28T07:51:39;5.57;;;3.60;;
9166;SDS011;4618;48.818;9.088;2023-05-28T07:54:05;6.95;;;4.10;;
9166;SDS011;4618;48.818;9.088;2023-05-28T07:56:30;6.05;;;3.83;;
9166;SDS011;4618;48.818;9.088;2023-05-28T07:58:56;6.88;;;4.00;;
9166;SDS011;4618;48.818;9.088;2023-05-28T08:01:22;7.80;;;4.18;;
9166;SDS011;4618;48.818;9.088;2023-05-28T08:03:48;5.53;;;3.83;;
9166;SDS011;4618;48.818;9.088;2023-05-28T08:06:16;5.65;;;4.03;;
9166;SDS011;4618;48.818;9.088;2023-05-28T08:08:43;6.00;;;4.07;;
9166;SDS011;4618;48.818;9.088;2023-05-28T08:11:09;5.85;;;4.00;;
9166;SDS011;4618;48.818;9.088;2023-05-28T08:13:38;5.10;;;3.53;;
9166;SDS011;4618;48.818;9.088;2023-05-28T08:16:04;6.53;;;3.97;;
9166;SDS011;4618;48.818;9.088;2023-05-28T08:18:30;7.55;;;4.00;;
9166;SDS011;4618;48.818;9.088;2023-05-28T08:20:55;6.45;;;4.22;;
9166;SDS011;4618;48.818;9.088;2023-05-28T08:23:21;5.90;;;3.90;;
9166;SDS011;4618;48.818;9.088;2023-05-28T08:25:46;7.93;;;3.67;;
9166;SDS011;4618;48.818;9.088;2023-05-28T08:28:12;6.78;;;3.90;;
9166;SDS011;4618;48.818;9.088;2023-05-28T08:30:38;6.35;;;4.18;;
9166;SDS011;4618;48.818;9.088;2023-05-28T08:33:04;7.38;;;4.97;;
9166;SDS011;4618;48.818;9.088;2023-05-28T08:35:29;5.75;;;3.92;;
9166;SDS011;4618;48.818;9.088;2023-05-28T08:37:55;7.07;;;3.65;;
9166;SDS011;4618;48.818;9.088;2023-05-28T08:40:21;8.35;;;3.85;;
9166;SDS011;4618;48.818;9.088;2023-05-28T08:42:47;8.48;;;3.83;;
9166;SDS011;4618;48.818;9.088;2023-05-28T08:45:14;5.13;;;3.97;;
9166;SDS011;4618;48.818;9.088;2023-05-28T08:47:40;6.00;;;3.85;;
9166;SDS011;4618;48.818;9.088;2023-05-28T08:50:07;6.50;;;4.03;;
9166;SDS011;4618;48.818;9.088;2023-05-28T08:52:34;6.85;;;4.05;;
9166;SDS011;4618;48.818;9.088;2023-05-28T08:55:00;6.47;;;3.92;;
9166;SDS011;4618;48.818;9.088;2023-05-28T08:57:29;4.72;;;3.50;;
9166;SDS011;4618;48.818;9.088;2023-05-28T08:59:57;7.13;;;3.95;;
9166;SDS011;4618;48.818;9.088;2023-05-28T09:02:25;8.15;;;3.55;;
9166;SDS011;4618;48.818;9.088;2023-05-28T09:04:51;6.78;;;3.95;;
9166;SDS011;4618;48.818;9.088;2023-05-28T09:07:17;7.97;;;3.70;;
9166;SDS011;4618;48.818;9.088;2023-05-28T09:09:43;7.57;;;3.72;;
9166;SDS011;4618;48.818;9.088;2023-05-28T09:12:12;6.07;;;3.58;;
9166;SDS011;4618;48.818;9.088;2023-05-28T09:14:41;6.13;;;3.80;;
9166;SDS011;4618;48.818;9.088;2023-05-28T09:17:08;7.43;;;3.88;;
9166;SDS011;4618;48.818;9.088;2023-05-28T09:19:34;7.50;;;3.95;;
9166;SDS011;4618;48.818;9.088;2023-05-28T09:22:01;5.38;;;3.45;;
9166;SDS011;4618;48.818;9.088;2023-05-28T09:24:28;5.28;;;3.60;;
9166;SDS011;4618;48.818;9.088;2023-05-28T09:26:56;7.13;;;3.63;;
9166;SDS011;4618;48.818;9.088;2023-05-28T09:29:22;6.05;;;3.63;;
9166;SDS011;4618;48.818;9.088;2023-05-28T09:31:55;6.57;;;3.65;;
9166;SDS011;4618;48.818;9.088;2023-05-28T09:34:28;5.60;;;3.85;;
9166;SDS011;4618;48.818;9.088;2023-05-28T09:37:02;8.23;;;3.88;;
9166;SDS011;4618;48.818;9.088;2023-05-28T09:39:29;6.63;;;3.80;;
9166;SDS011;4618;48.818;9.088;2023-05-28T09:42:01;7.05;;;4.25;;
9166;SDS011;4618;48.818;9.088;2023-05-28T09:44:35;9.20;;;3.90;;
9166;SDS011;4618;48.818;9.088;2023-05-28T09:47:11;6.43;;;3.78;;
9166;SDS011;4618;48.818;9.088;2023-05-28T09:49:37;6.82;;;3.90;;
9166;SDS011;4618;48.818;9.088;2023-05-28T09:52:03;6.63;;;4.47;;
9166;SDS011;4618;48.818;9.088;2023-05-28T09:54:32;7.93;;;3.72;;
9166;SDS011;4618;48.818;9.088;2023-05-28T09:57:02;5.78;;;3.55;;
9166;SDS011;4618;48.818;9.088;2023-05-28T09:59:30;5.30;;;3.60;;
9166;SDS011;4618;48.818;9.088;2023-05-28T10:02:03;7.35;;;3.97;;
9166;SDS011;4618;48.818;9.088;2023-05-28T10:04:34;6.40;;;3.42;;
9166;SDS011;4618;48.818;9.088;2023-05-28T10:07:05;5.15;;;3.50;;
9166;SDS011;4618;48.818;9.088;2023-05-28T10:09:31;5.32;;;3.40;;
9166;SDS011;4618;48.818;9.088;2023-05-28T10:12:04;6.13;;;3.60;;
9166;SDS011;4618;48.818;9.088;2023-05-28T10:14:35;6.05;;;3.83;;
9166;SDS011;4618;48.818;9.088;2023-05-28T10:17:02;8.73;;;4.03;;
9166;SDS011;4618;48.818;9.088;2023-05-28T10:19:28;6.07;;;3.60;;
9166;SDS011;4618;48.818;9.088;2023-05-28T10:21:54;6.38;;;3.60;;
9166;SDS011;4618;48.818;9.088;2023-05-28T10:24:20;7.90;;;3.95;;
9166;SDS011;4618;48.818;9.088;2023-05-28T10:26:47;8.65;;;3.72;;
9166;SDS011;4618;48.818;9.088;2023-05-28T10:29:13;6.38;;;3.60;;
9166;SDS011;4618;48.818;9.088;2023-05-28T10:31:39;6.90;;;3.42;;
9166;SDS011;4618;48.818;9.088;2023-05-28T10:34:17;8.20;;;3.63;;
9166;SDS011;4618;48.818;9.088;2023-05-28T10:36:49;5.30;;;3.38;;
9166;SDS011;4618;48.818;9.088;2023-05-28T10:39:15;6.40;;;3.53;;
9166;SDS011;4618;48.818;9.088;2023-05-28T10:41:41;7.10;;;3.70;;
9166;SDS011;4618;48.818;9.088;2023-05-28T10:44:07;6.88;;;3.80;;
9166;SDS011;4618;48.818;9.088;2023-05-28T10:46:39;5.57;;;3.65;;
9166;SDS011;4618;48.818;9.088;2023-05-28T10:49:12;7.38;;;3.40;;
9166;SDS011;4618;48.818;9.088;2023-05-28T10:51:51;7.00;;;3.90;;
9166;SDS011;4618;48.818;9.088;2023-05-28T10:59:47;6.63;;;3.65;;
9166;SDS011;4618;48.818;9.088;2023-05-28T11:02:26;4.35;;;3.40;;
9166;SDS011;4618;48.818;9.088;2023-05-28T11:04:56;6.15;;;3.60;;
9166;SDS011;4618;48.818;9.088;2023-05-28T11:07:30;5.22;;;3.63;;
9166;SDS011;4618;48.818;9.088;2023-05-28T11:10:00;5.20;;;3.67;;
9166;SDS011;4618;48.818;9.088;2023-05-28T11:12:29;4.82;;;3.50;;
9166;SDS011;4618;48.818;9.088;2023-05-28T11:14:56;7.65;;;3.67;;
9166;SDS011;4618;48.818;9.088;2023-05-28T11:17:22;9.95;;;3.70;;
9166;SDS011;4618;48.818;9.088;2023-05-28T11:19:49;5.88;;;3.45;;
9166;SDS011;4618;48.818;9.088;2023-05-28T11:22:15;9.65;;;4.30;;
9166;SDS011;4618;48.818;9.088;2023-05-28T11:24:53;6.07;;;3.58;;
9166;SDS011;4618;48.818;9.088;2023-05-28T11:27:23;5.38;;;3.65;;
9166;SDS011;4618;48.818;9.088;2023-05-28T11:29:50;4.80;;;3.60;;
9166;SDS011;4618;48.818;9.088;2023-05-28T11:32:18;6.55;;;3.35;;
9166;SDS011;4618;48.818;9.088;2023-05-28T11:34:47;5.22;;;3.55;;
9166;SDS011;4618;48.818;9.088;2023-05-28T11:37:13;5.43;;;3.25;;
9166;SDS011;4618;48.818;9.088;2023-05-28T11:39:43;5.22;;;3.47;;
9166;SDS011;4618;48.818;9.088;2023-05-28T11:42:13;4.63;;;3.20;;
9166;SDS011;4618;48.818;9.088;2023-05-28T11:44:42;5.85;;;3.70;;
9166;SDS011;4618;48.818;9.088;2023-05-28T11:47:09;5.50;;;3.35;;
9166;SDS011;4618;48.818;9.088;2023-05-28T11:49:36;5.78;;;3.60;;
9166;SDS011;4618;48.818;9.088;2023-05-28T11:52:02;4.50;;;3.42;;
9166;SDS011;4618;48.818;9.088;2023-05-28T11:54:27;5.82;;;3.50;;
9166;SDS011;4618;48.818;9.088;2023-05-28T11:56:53;5.13;;;3.35;;
9166;SDS011;4618;48.818;9.088;2023-05-28T11:59:22;5.30;;;3.80;;
9166;SDS011;4618;48.818;9.088;2023-05-28T12:01:51;5.15;;;3.17;;
9166;SDS011;4618;48.818;9.088;2023-05-28T12:04:21;6.35;;;3.47;;
9166;SDS011;4618;48.818;9.088;2023-05-28T12:06:53;6.18;;;3.70;;
9166;SDS011;4618;48.818;9.088;2023-05-28T12:09:19;5.25;;;3.33;;
9166;SDS011;4618;48.818;9.088;2023-05-28T12:12:00;6.88;;;3.60;;
9166;SDS011;4618;48.818;9.088;2023-05-28T12:14:30;3.97;;;3.20;;
9166;SDS011;4618;48.818;9.088;2023-05-28T12:17:08;4.55;;;3.17;;
9166;SDS011;4618;48.818;9.088;2023-05-28T12:19:34;4.35;;;3.33;;
9166;SDS011;4618;48.818;9.088;2023-05-28T12:22:01;4.55;;;3.55;;
9166;SDS011;4618;48.818;9.088;2023-05-28T12:24:27;5.43;;;3.13;;
9166;SDS011;4618;48.818;9.088;2023-05-28T12:26:53;4.28;;;3.22;;
9166;SDS011;4618;48.818;9.088;2023-05-28T12:29:19;7.57;;;3.60;;
9166;SDS011;4618;48.818;9.088;2023-05-28T12:31:44;6.75;;;3.30;;
9166;SDS011;4618;48.818;9.088;2023-05-28T12:34:10;4.03;;;3.63;;
9166;SDS011;4618;48.818;9.088;2023-05-28T12:36:36;4.70;;;3.53;;
9166;SDS011;4618;48.818;9.088;2023-05-28T12:39:02;8.05;;;3.50;;
9166;SDS011;4618;48.818;9.088;2023-05-28T12:41:29;8.43;;;3.75;;
9166;SDS011;4618;48.818;9.088;2023-05-28T12:43:55;4.57;;;3.38;;
9166;SDS011;4618;48.818;9.088;2023-05-28T12:46:21;7.25;;;3.67;;
9166;SDS011;4618;48.818;9.088;2023-05-28T12:48:47;7.70;;;3.53;;
9166;SDS011;4618;48.818;9.088;2023-05-28T12:51:12;6.53;;;3.50;;
9166;SDS011;4618;48.818;9.088;2023-05-28T12:53:39;7.65;;;4.22;;
9166;SDS011;4618;48.818;9.088;2023-05-28T12:56:04;7.10;;;4.00;;
9166;SDS011;4618;48.818;9.088;2023-05-28T12:58:30;5.93;;;3.65;;
9166;SDS011;4618;48.818;9.088;2023-05-28T13:00:55;6.72;;;3.60;;
9166;SDS011;4618;48.818;9.088;2023-05-28T13:03:21;5.72;;;3.65;;
9166;SDS011;4618;48.818;9.088;2023-05-28T13:05:46;4.90;;;3.47;;
9166;SDS011;4618;48.818;9.088;2023-05-28T13:08:12;5.35;;;3.60;;
9166;SDS011;4618;48.818;9.088;2023-05-28T13:10:38;5.38;;;3.17;;
9166;SDS011;4618;48.818;9.088;2023-05-28T13:13:03;6.35;;;3.40;;
9166;SDS011;4618;48.818;9.088;2023-05-28T13:15:29;4.75;;;3.40;;
9166;SDS011;4618;48.818;9.088;2023-05-28T13:17:55;5.20;;;3.75;;
9166;SDS011;4618;48.818;9.088;2023-05-28T13:20:22;5.72;;;3.53;;
9166;SDS011;4618;48.818;9.088;2023-05-28T13:22:47;4.78;;;3.55;;
9166;SDS011;4618;48.818;9.088;2023-05-28T13:25:13;5.60;;;3.33;;
9166;SDS011;4618;48.818;9.088;2023-05-28T13:27:38;8.95;;;3.72;;
9166;SDS011;4618;48.818;9.088;2023-05-28T13:30:05;7.22;;;3.47;;
9166;SDS011;4618;48.818;9.088;2023-05-28T13:32:31;6.18;;;3.78;;
9166;SDS011;4618;48.818;9.088;2023-05-28T13:34:57;4.43;;;3.40;;
9166;SDS011;4618;48.818;9.088;2023-05-28T13:37:22;4.80;;;3.80;;
9166;SDS011;4618;48.818;9.088;2023-05-28T13:39:48;6.63;;;3.30;;
9166;SDS011;4618;48.818;9.088;2023-05-28T13:42:14;5.65;;;3.47;;
9166;SDS011;4618;48.818;9.088;2023-05-28T13:44:44;4.93;;;3.42;;
9166;SDS011;4618;48.818;9.088;2023-05-28T13:47:11;5.35;;;3.40;;
9166;SDS011;4618;48.818;9.088;2023-05-28T13:49:36;5.03;;;3.50;;
9166;SDS011;4618;48.818;9.088;2023-05-28T13:52:02;6.55;;;3.58;;
9166;SDS011;4618;48.818;9.088;2023-05-28T13:54:28;3.85;;;3.00;;
9166;SDS011;4618;48.818;9.088;2023-05-28T13:56:53;4.60;;;3.20;;
9166;SDS011;4618;48.818;9.088;2023-05-28T13:59:19;5.00;;;3.50;;
9166;SDS011;4618;48.818;9.088;2023-05-28T14:01:44;5.00;;;2.97;;
9166;SDS011;4618;48.818;9.088;2023-05-28T14:04:10;4.47;;;3.10;;
9166;SDS011;4618;48.818;9.088;2023-05-28T14:06:36;5.45;;;3.47;;
9166;SDS011;4618;48.818;9.088;2023-05-28T14:09:02;5.03;;;3.40;;
9166;SDS011;4618;48.818;9.088;2023-05-28T14:11:29;4.68;;;3.30;;
9166;SDS011;4618;48.818;9.088;2023-05-28T14:13:55;7.03;;;3.78;;
9166;SDS011;4618;48.818;9.088;2023-05-28T14:16:20;6.35;;;3.53;;
9166;SDS011;4618;48.818;9.088;2023-05-28T14:18:46;5.00;;;3.35;;
9166;SDS011;4618;48.818;9.088;2023-05-28T14:21:11;6.57;;;3.50;;
9166;SDS011;4618;48.818;9.088;2023-05-28T14:23:37;7.05;;;4.25;;
9166;SDS011;4618;48.818;9.088;2023-05-28T14:26:02;6.90;;;4.20;;
9166;SDS011;4618;48.818;9.088;2023-05-28T14:28:28;4.70;;;3.42;;
9166;SDS011;4618;48.818;9.088;2023-05-28T14:30:54;5.53;;;3.63;;
9166;SDS011;4618;48.818;9.088;2023-05-28T14:33:20;6.90;;;3.88;;
9166;SDS011;4618;48.818;9.088;2023-05-28T14:35:46;4.65;;;3.40;;
9166;SDS011;4618;48.818;9.088;2023-05-28T14:38:11;6.85;;;3.72;;
9166;SDS011;4618;48.818;9.088;2023-05-28T14:40:37;5.72;;;4.00;;
9166;SDS011;4618;48.818;9.088;2023-05-28T14:43:02;5.80;;;3.67;;
9166;SDS011;4618;48.818;9.088;2023-05-28T14:45:28;6.55;;;3.85;;
9166;SDS011;4618;48.818;9.088;2023-05-28T14:47:53;5.07;;;4.03;;
9166;SDS011;4618;48.818;9.088;2023-05-28T14:50:19;5.65;;;4.03;;
9166;SDS011;4618;48.818;9.088;2023-05-28T14:52:45;7.55;;;4.82;;
9166;SDS011;4618;48.818;9.088;2023-05-28T14:55:11;4.30;;;3.55;;
9166;SDS011;4618;48.818;9.088;2023-05-28T14:57:36;6.47;;;4.80;;
9166;SDS011;4618;48.818;9.088;2023-05-28T15:00:03;5.00;;;3.50;;
9166;SDS011;4618;48.818;9.088;2023-05-28T15:02:32;6.10;;;3.85;;
9166;SDS011;4618;48.818;9.088;2023-05-28T15:04:59;9.88;;;4.75;;
9166;SDS011;4618;48.818;9.088;2023-05-28T15:07:24;7.07;;;4.20;;
9166;SDS011;4618;48.818;9.088;2023-05-28T15:09:50;5.55;;;3.88;;
9166;SDS011;4618;48.818;9.088;2023-05-28T15:12:16;4.70;;;4.00;;
9166;SDS011;4618;48.818;9.088;2023-05-28T15:14:42;5.45;;;3.65;;